Time;durP1;ratioP1;P1;durP2;ratioP2;P2;SDS_P1;SDS_P2;PMS_P1;PMS_P2;Temp;Humidity;BMP_temperature;BMP_pressure;BME280_temperature;BME280_humidity;BME280_pressure;Samples;Min_cycle;Max_cycle;Signal;HPM_P1;HPM_P2
2022/11/11 00:01:08;;;;;;;19.50;13.52;;;6.70;99.90;;;;;;5026797;28;20018;-77
2022/11/11 00:03:34;;;;;;;19.33;12.95;;;6.70;99.90;;;;;;5016945;28;20121;-77
2022/11/11 00:06:05;;;;;;;22.95;14.27;;;6.70;99.90;;;;;;5026473;28;20061;-76
2022/11/11 00:08:31;;;;;;;19.65;14.40;;;6.70;99.90;;;;;;5028646;28;20021;-77
2022/11/11 00:11:05;;;;;;;19.10;14.52;;;6.70;99.90;;;;;;5025471;28;20498;-77
2022/11/11 00:13:32;;;;;;;19.67;14.40;;;6.70;99.90;;;;;;5025887;28;20033;-77
2022/11/11 00:16:12;;;;;;;20.73;14.38;;;6.70;99.90;;;;;;5023308;28;20042;-77
2022/11/11 00:27:13;;;;;;;24.23;14.70;;;6.60;99.90;;;;;;5018029;28;20044;-77
2022/11/11 00:29:39;;;;;;;21.52;14.95;;;6.60;99.90;;;;;;5021196;28;20157;-77
2022/11/11 00:32:22;;;;;;;19.60;14.10;;;6.60;99.90;;;;;;5030169;28;20038;-77
2022/11/11 00:37:34;;;;;;;25.88;14.55;;;6.60;99.90;;;;;;5024755;28;20100;-77
2022/11/11 00:40:00;;;;;;;20.65;13.43;;;6.60;99.90;;;;;;5023746;28;20026;-77
2022/11/11 00:42:26;;;;;;;18.05;13.10;;;6.60;99.90;;;;;;5024398;28;20034;-77
2022/11/11 00:44:52;;;;;;;21.48;14.20;;;6.50;99.90;;;;;;5021954;28;20049;-77
2022/11/11 00:52:54;;;;;;;24.63;14.55;;;6.60;99.90;;;;;;5019302;28;20558;-77
2022/11/11 00:55:20;;;;;;;23.52;13.48;;;6.60;99.90;;;;;;5033668;28;20034;-77
2022/11/11 00:57:45;;;;;;;19.75;14.15;;;6.70;99.90;;;;;;5024739;28;20109;-77
2022/11/11 01:00:12;;;;;;;20.80;12.95;;;6.60;99.90;;;;;;5026333;28;20547;-77
2022/11/11 01:02:38;;;;;;;23.60;14.25;;;6.70;99.90;;;;;;5021780;28;20038;-77
2022/11/11 01:05:04;;;;;;;21.60;14.73;;;6.60;99.90;;;;;;5023020;28;20032;-77
2022/11/11 01:07:30;;;;;;;22.20;14.48;;;6.60;99.90;;;;;;5021798;28;20026;-77
2022/11/11 01:09:55;;;;;;;16.73;12.75;;;6.60;99.90;;;;;;5029058;28;20043;-75
2022/11/11 01:12:21;;;;;;;19.70;14.30;;;6.50;99.90;;;;;;5022699;28;20038;-76
2022/11/11 01:14:47;;;;;;;27.90;15.88;;;6.50;99.90;;;;;;5025051;28;20026;-76
2022/11/11 01:17:13;;;;;;;20.80;14.55;;;6.50;99.90;;;;;;5019974;28;20056;-76
2022/11/11 01:19:38;;;;;;;22.48;15.30;;;6.50;99.90;;;;;;5019995;28;20030;-76
2022/11/11 01:22:04;;;;;;;25.45;14.55;;;6.50;99.90;;;;;;5020537;28;20513;-76
2022/11/11 01:24:30;;;;;;;19.52;14.88;;;6.50;99.90;;;;;;5018615;28;20536;-76
2022/11/11 01:26:56;;;;;;;19.92;14.88;;;6.50;99.90;;;;;;5017195;28;20092;-76
2022/11/11 01:29:22;;;;;;;21.35;15.63;;;6.60;99.90;;;;;;5022596;28;20026;-76
2022/11/11 01:31:47;;;;;;;28.08;16.27;;;6.70;99.90;;;;;;5029238;28;20111;-76
2022/11/11 01:34:13;;;;;;;24.30;16.35;;;6.80;99.90;;;;;;5012822;28;20201;-75
2022/11/11 01:36:39;;;;;;;28.52;15.63;;;6.90;99.90;;;;;;5022471;28;20033;-76
2022/11/11 01:39:05;;;;;;;23.45;13.80;;;7.00;99.90;;;;;;5019718;28;20097;-76
2022/11/11 01:41:35;;;;;;;19.92;14.88;;;6.90;99.90;;;;;;5023135;28;20066;-76
2022/11/11 01:44:06;;;;;;;22.50;13.17;;;6.90;99.90;;;;;;5021030;28;20026;-76
2022/11/11 01:46:38;;;;;;;23.80;12.50;;;7.00;99.90;;;;;;5019392;28;20018;-75
2022/11/11 01:49:28;;;;;;;19.85;12.05;;;7.20;99.90;;;;;;5017770;28;20031;-75
2022/11/11 01:52:24;;;;;;;12.70;10.53;;;7.40;99.90;;;;;;5022441;28;20587;-76
2022/11/11 01:54:54;;;;;;;19.05;10.82;;;7.30;99.90;;;;;;5019967;28;20128;-76
2022/11/11 01:57:49;;;;;;;18.02;11.63;;;7.30;99.90;;;;;;5027691;28;20443;-76
2022/11/11 02:00:17;;;;;;;17.83;9.48;;;7.30;99.90;;;;;;5017235;28;20053;-76
2022/11/11 02:03:08;;;;;;;18.73;9.63;;;7.30;99.90;;;;;;5018525;28;20093;-75
2022/11/11 02:05:44;;;;;;;13.88;8.90;;;7.30;99.90;;;;;;5054810;28;20544;-76
2022/11/11 02:08:32;;;;;;;17.33;8.63;;;7.30;99.90;;;;;;5024870;28;20521;-76
2022/11/11 02:11:15;;;;;;;13.93;9.27;;;7.30;99.90;;;;;;5023633;28;20160;-75
2022/11/11 02:16:27;;;;;;;19.10;9.55;;;7.20;99.90;;;;;;5023271;28;20049;-76
2022/11/11 02:18:54;;;;;;;14.93;10.35;;;7.20;99.90;;;;;;5020173;28;20093;-76
2022/11/11 02:21:32;;;;;;;14.75;11.00;;;7.10;99.90;;;;;;5039000;28;20033;-76
2022/11/11 02:24:08;;;;;;;19.23;11.02;;;7.00;99.90;;;;;;5021291;28;20033;-76
2022/11/11 02:26:35;;;;;;;16.35;10.27;;;6.80;99.90;;;;;;5023122;28;20018;-76
2022/11/11 02:29:06;;;;;;;10.90;8.52;;;6.70;99.90;;;;;;5025225;28;20029;-76
2022/11/11 02:31:32;;;;;;;13.70;10.15;;;6.70;99.90;;;;;;5033233;28;20084;-76
2022/11/11 02:33:58;;;;;;;15.45;9.77;;;6.80;99.90;;;;;;5016001;28;20521;-76
2022/11/11 02:36:24;;;;;;;13.73;9.65;;;7.00;99.90;;;;;;5026413;28;20026;-75
2022/11/11 02:38:51;;;;;;;21.08;9.40;;;7.10;99.90;;;;;;5020605;28;20022;-76
2022/11/11 02:44:01;;;;;;;13.55;8.10;;;7.30;99.90;;;;;;5024148;28;20541;-76
2022/11/11 02:46:27;;;;;;;13.43;11.05;;;7.30;99.90;;;;;;5022674;28;20021;-75
2022/11/11 02:48:52;;;;;;;13.88;9.70;;;7.40;99.90;;;;;;5020603;28;20449;-75
2022/11/11 02:51:18;;;;;;;15.32;9.43;;;7.20;99.90;;;;;;5021395;28;20092;-75
2022/11/11 02:53:44;;;;;;;17.67;9.85;;;7.20;99.90;;;;;;5020712;28;20490;-75
2022/11/11 02:56:10;;;;;;;20.55;9.95;;;7.20;99.90;;;;;;5035364;28;20096;-76
2022/11/11 02:58:36;;;;;;;18.48;11.40;;;7.10;99.90;;;;;;5024786;28;20045;-76
2022/11/11 03:01:01;;;;;;;16.60;11.98;;;7.10;99.90;;;;;;5031178;28;20101;-76
2022/11/11 03:03:27;;;;;;;16.70;12.30;;;7.00;99.90;;;;;;5021698;28;20494;-76
2022/11/11 03:05:53;;;;;;;22.95;12.68;;;7.10;99.90;;;;;;5027859;28;20049;-76
2022/11/11 03:08:19;;;;;;;20.75;14.75;;;7.10;99.90;;;;;;5024198;28;20097;-76
2022/11/11 03:10:45;;;;;;;16.33;12.75;;;7.20;99.90;;;;;;5041452;28;20608;-76
2022/11/11 03:13:10;;;;;;;20.17;13.60;;;7.20;99.90;;;;;;5026660;28;20033;-76
2022/11/11 03:15:36;;;;;;;16.25;12.32;;;7.20;99.90;;;;;;5025890;28;20081;-76
2022/11/11 03:18:02;;;;;;;16.38;10.43;;;7.20;99.90;;;;;;5023344;28;20041;-76
2022/11/11 03:23:14;;;;;;;13.25;10.02;;;7.30;99.90;;;;;;5021512;28;20056;-76
2022/11/11 03:25:46;;;;;;;15.48;10.00;;;7.30;99.90;;;;;;5018969;28;20018;-75
2022/11/11 03:28:14;;;;;;;16.85;9.50;;;7.30;99.90;;;;;;5021581;28;20093;-76
2022/11/11 03:30:42;;;;;;;16.70;9.57;;;7.40;99.90;;;;;;5029800;28;20014;-75
2022/11/11 03:33:08;;;;;;;14.05;9.13;;;7.50;99.90;;;;;;5019262;28;20057;-76
2022/11/11 03:35:35;;;;;;;23.45;12.65;;;7.40;99.90;;;;;;5020376;28;20441;-75
2022/11/11 03:38:22;;;;;;;19.80;10.95;;;7.40;99.90;;;;;;5023233;28;20371;-75
2022/11/11 03:40:55;;;;;;;15.65;11.32;;;7.20;99.90;;;;;;5025558;28;20037;-75
2022/11/11 03:43:23;;;;;;;13.73;10.35;;;7.10;99.90;;;;;;5022822;28;20034;-76
2022/11/11 03:45:50;;;;;;;15.45;11.27;;;7.10;99.90;;;;;;5022969;28;20025;-75
2022/11/11 03:48:15;;;;;;;14.98;11.15;;;7.00;99.90;;;;;;5019931;28;20053;-75
2022/11/11 03:50:41;;;;;;;14.05;10.70;;;7.00;99.90;;;;;;5020474;28;20494;-75
2022/11/11 03:53:07;;;;;;;17.42;12.02;;;7.00;99.90;;;;;;5021417;28;20083;-75
2022/11/11 03:55:33;;;;;;;19.52;13.48;;;6.90;99.90;;;;;;5031204;28;20018;-75
2022/11/11 03:57:59;;;;;;;16.15;11.90;;;7.00;99.90;;;;;;5025766;28;20033;-75
2022/11/11 04:00:28;;;;;;;16.17;12.18;;;7.10;99.90;;;;;;5044114;28;20394;-75
2022/11/11 04:11:27;;;;;;;17.95;10.88;;;7.30;99.90;;;;;;5027466;28;20048;-75
2022/11/11 04:16:41;;;;;;;16.63;10.75;;;7.40;99.90;;;;;;5025263;28;20071;-76
2022/11/11 04:21:52;;;;;;;13.95;10.60;;;7.50;99.90;;;;;;5021775;28;20036;-76
2022/11/11 04:27:07;;;;;;;17.10;11.40;;;7.80;99.90;;;;;;5020503;28;20096;-75
2022/11/11 04:29:33;;;;;;;15.98;10.10;;;7.90;99.90;;;;;;5039343;28;20045;-76
2022/11/11 04:35:02;;;;;;;14.00;10.80;;;8.10;99.90;;;;;;5017885;28;20129;-76
2022/11/11 04:37:32;;;;;;;16.48;10.10;;;8.20;99.90;;;;;;5024533;28;20458;-75
2022/11/11 04:42:42;;;;;;;20.10;11.27;;;8.30;99.90;;;;;;5020961;28;20104;-76
2022/11/11 04:48:03;;;;;;;14.27;10.35;;;8.30;99.90;;;;;;5020644;28;20048;-75
2022/11/11 04:50:34;;;;;;;12.15;9.40;;;8.40;99.90;;;;;;5019188;28;20030;-75
2022/11/11 04:53:01;;;;;;;11.90;9.63;;;8.50;99.90;;;;;;5016274;28;20090;-75
2022/11/11 04:58:12;;;;;;;14.30;10.45;;;8.50;99.90;;;;;;5026329;28;20104;-75
2022/11/11 05:00:38;;;;;;;11.30;10.05;;;8.60;99.90;;;;;;5028242;28;20030;-75
2022/11/11 05:03:17;;;;;;;13.02;9.90;;;8.60;99.90;;;;;;5019485;28;20129;-76
2022/11/11 05:08:56;;;;;;;18.35;9.98;;;8.70;99.90;;;;;;5013644;28;20098;-76
2022/11/11 05:11:23;;;;;;;15.93;9.48;;;8.70;99.90;;;;;;5016389;28;20033;-75
2022/11/11 05:22:17;;;;;;;12.77;9.63;;;8.80;99.90;;;;;;5029331;28;20041;-75
2022/11/11 05:27:28;;;;;;;11.07;9.90;;;9.00;99.90;;;;;;5017625;28;20076;-75
2022/11/11 05:29:54;;;;;;;13.32;9.95;;;9.00;99.90;;;;;;5017135;28;20030;-75
2022/11/11 05:32:21;;;;;;;16.98;8.93;;;9.10;99.90;;;;;;5022644;28;20018;-75
2022/11/11 05:34:47;;;;;;;17.13;9.45;;;9.20;99.90;;;;;;5018677;28;20018;-75
2022/11/11 05:37:14;;;;;;;19.63;10.63;;;9.60;99.90;;;;;;5024588;28;20076;-75
2022/11/11 05:39:40;;;;;;;17.02;9.45;;;10.00;99.90;;;;;;5016395;28;20109;-75
2022/11/11 05:42:06;;;;;;;11.07;9.48;;;10.40;99.90;;;;;;5021196;28;20034;-75
2022/11/11 05:44:31;;;;;;;16.02;9.45;;;10.70;99.90;;;;;;5016730;28;20071;-75
2022/11/11 05:46:57;;;;;;;18.85;10.75;;;10.80;99.90;;;;;;5018338;28;20022;-75
2022/11/11 05:49:24;;;;;;;22.60;9.50;;;11.00;99.90;;;;;;5017167;28;20064;-75
2022/11/11 05:51:50;;;;;;;13.77;8.57;;;11.10;99.90;;;;;;5024419;28;20021;-75
2022/11/11 05:54:16;;;;;;;14.07;8.43;;;11.20;99.90;;;;;;5020470;28;20032;-76
2022/11/11 05:56:42;;;;;;;13.90;8.55;;;11.40;99.90;;;;;;5033930;28;20113;-76
2022/11/11 05:59:08;;;;;;;14.40;7.32;;;11.40;99.90;;;;;;5018297;28;20478;-75
2022/11/11 06:01:35;;;;;;;15.30;6.85;;;11.50;99.90;;;;;;5032573;28;20033;-76
2022/11/11 06:04:02;;;;;;;15.25;6.57;;;11.60;99.90;;;;;;5014425;28;20029;-75
2022/11/11 06:06:28;;;;;;;18.38;7.18;;;11.60;99.90;;;;;;5028147;28;20104;-75
2022/11/11 06:08:54;;;;;;;11.60;6.85;;;11.60;99.90;;;;;;5018020;28;20061;-74
2022/11/11 06:11:20;;;;;;;16.73;6.90;;;11.60;99.90;;;;;;5023600;28;20026;-74
2022/11/11 06:13:45;;;;;;;9.73;5.95;;;11.60;99.90;;;;;;5023681;28;20018;-73
2022/11/11 06:16:11;;;;;;;9.60;6.45;;;11.60;99.90;;;;;;5021095;28;20041;-75
2022/11/11 06:18:37;;;;;;;13.23;7.43;;;11.50;99.90;;;;;;5018499;28;20025;-73
2022/11/11 06:21:03;;;;;;;15.40;7.47;;;11.50;99.90;;;;;;5018317;28;20050;-74
2022/11/11 06:23:29;;;;;;;11.50;7.00;;;11.60;99.90;;;;;;5016504;28;20037;-73
2022/11/11 06:26:14;;;;;;;15.02;7.53;;;11.70;99.90;;;;;;5025909;28;20017;-75
2022/11/11 06:28:46;;;;;;;13.13;7.50;;;11.90;99.90;;;;;;5015256;28;20501;-75
2022/11/11 06:31:17;;;;;;;19.17;7.57;;;12.00;99.90;;;;;;5027403;28;20076;-74
2022/11/11 06:33:44;;;;;;;12.40;7.10;;;12.10;99.90;;;;;;5012325;28;20115;-75
2022/11/11 06:36:12;;;;;;;14.52;8.05;;;12.10;99.90;;;;;;5026222;28;20033;-75
2022/11/11 06:38:40;;;;;;;13.68;6.80;;;12.10;99.90;;;;;;5017389;28;20076;-75
2022/11/11 06:41:06;;;;;;;9.02;6.47;;;12.10;99.90;;;;;;5023281;28;20045;-75
2022/11/11 06:43:32;;;;;;;14.43;7.03;;;12.10;99.90;;;;;;5011242;28;20030;-74
2022/11/11 06:45:58;;;;;;;15.75;6.50;;;12.10;99.90;;;;;;5012766;28;20030;-74
2022/11/11 06:48:26;;;;;;;16.08;6.68;;;12.20;99.90;;;;;;5015795;28;20491;-75
2022/11/11 06:50:52;;;;;;;15.85;6.20;;;12.20;99.90;;;;;;5018965;28;20018;-77
2022/11/11 06:53:19;;;;;;;13.73;6.60;;;12.20;99.90;;;;;;5030266;28;20101;-77
2022/11/11 06:55:45;;;;;;;54.97;27.15;;;12.30;99.90;;;;;;5039937;28;20018;-76
2022/11/11 06:58:20;;;;;;;39.55;28.33;;;12.40;99.90;;;;;;5013894;28;20080;-77
2022/11/11 07:00:48;;;;;;;18.42;9.25;;;12.50;99.90;;;;;;5013397;28;20033;-77
2022/11/11 07:03:17;;;;;;;9.80;6.65;;;12.60;99.90;;;;;;5009075;28;20034;-76
2022/11/11 07:05:43;;;;;;;11.00;6.68;;;12.60;99.90;;;;;;5014358;28;20482;-76
2022/11/11 07:08:15;;;;;;;21.63;19.48;;;12.70;99.90;;;;;;5015405;28;20068;-76
2022/11/11 07:10:47;;;;;;;12.32;6.82;;;12.60;99.90;;;;;;5016434;28;20471;-76
2022/11/11 07:13:14;;;;;;;14.15;12.15;;;12.70;99.90;;;;;;5016012;28;20030;-76
2022/11/11 07:15:42;;;;;;;12.68;5.72;;;12.70;99.90;;;;;;5016153;28;20045;-77
2022/11/11 07:18:07;;;;;;;11.43;6.03;;;12.90;99.90;;;;;;5010456;28;20045;-76
2022/11/11 07:20:34;;;;;;;11.52;6.00;;;12.90;99.90;;;;;;5014555;28;20026;-76
2022/11/11 07:22:59;;;;;;;8.75;5.68;;;12.90;99.90;;;;;;5014435;28;20026;-76
2022/11/11 07:25:25;;;;;;;17.88;6.78;;;12.90;99.90;;;;;;5017676;28;20574;-76
2022/11/11 07:27:51;;;;;;;10.93;7.60;;;13.00;99.90;;;;;;5021455;28;20026;-77
2022/11/11 07:30:18;;;;;;;10.38;5.38;;;13.00;99.90;;;;;;5018346;28;20030;-76
2022/11/11 07:32:49;;;;;;;17.27;7.78;;;13.10;99.90;;;;;;5023715;28;20029;-76
2022/11/11 07:35:16;;;;;;;15.35;6.05;;;13.10;99.90;;;;;;5021144;28;20018;-76
2022/11/11 07:37:43;;;;;;;11.13;5.03;;;13.20;99.90;;;;;;5020830;28;20030;-76
2022/11/11 07:40:12;;;;;;;10.23;5.65;;;13.20;99.90;;;;;;5029991;28;20033;-76
2022/11/11 07:42:39;;;;;;;13.35;6.43;;;13.30;99.90;;;;;;5021420;28;20057;-77
2022/11/11 07:45:06;;;;;;;16.17;6.25;;;13.40;99.90;;;;;;5025431;28;20032;-77
2022/11/11 07:47:33;;;;;;;14.30;4.88;;;13.40;99.90;;;;;;5028913;28;20021;-77
2022/11/11 07:50:00;;;;;;;9.77;5.35;;;13.40;99.90;;;;;;5029324;28;20018;-76
2022/11/11 07:52:26;;;;;;;12.88;4.38;;;13.50;99.90;;;;;;5019938;28;20040;-77
2022/11/11 07:54:52;;;;;;;11.68;5.85;;;13.60;99.90;;;;;;5009322;28;20553;-76
2022/11/11 07:57:17;;;;;;;8.70;4.85;;;13.70;99.90;;;;;;5010803;28;20049;-76
2022/11/11 07:59:43;;;;;;;10.07;4.82;;;13.80;99.90;;;;;;5013722;28;20502;-75
2022/11/11 08:02:13;;;;;;;10.57;5.50;;;13.90;99.90;;;;;;5015714;28;20037;-76
2022/11/11 08:04:39;;;;;;;10.48;5.38;;;14.00;99.90;;;;;;5011625;28;20045;-76
2022/11/11 08:07:05;;;;;;;11.05;4.95;;;14.00;99.90;;;;;;5019124;28;20022;-77
2022/11/11 08:09:31;;;;;;;11.90;4.15;;;14.00;99.90;;;;;;5012125;28;20033;-77
2022/11/11 08:14:41;;;;;;;11.68;5.15;;;14.20;99.90;;;;;;5012662;28;20041;-76
2022/11/11 08:17:06;;;;;;;10.43;5.00;;;14.30;99.90;;;;;;5014522;28;20046;-77
2022/11/11 08:19:32;;;;;;;9.10;4.80;;;14.30;99.90;;;;;;5029136;28;20022;-76
2022/11/11 08:21:58;;;;;;;9.43;4.47;;;14.50;99.90;;;;;;5015537;28;20033;-75
2022/11/11 08:24:24;;;;;;;9.60;4.28;;;14.50;99.90;;;;;;5026916;28;20029;-77
2022/11/11 08:26:52;;;;;;;15.35;5.45;;;14.50;99.90;;;;;;5031847;28;20385;-77
2022/11/11 08:29:18;;;;;;;12.70;4.95;;;14.60;99.90;;;;;;5012794;28;20041;-78
2022/11/11 08:31:44;;;;;;;16.25;4.07;;;14.60;99.90;;;;;;5015101;28;20029;-76
2022/11/11 08:34:11;;;;;;;8.65;4.57;;;14.70;99.90;;;;;;5010616;28;20022;-77
2022/11/11 08:36:37;;;;;;;4.93;3.88;;;14.80;99.90;;;;;;5029906;28;20030;-77
2022/11/11 08:39:03;;;;;;;9.05;4.03;;;14.90;99.90;;;;;;5013631;28;20054;-78
2022/11/11 08:41:29;;;;;;;13.40;3.92;;;14.90;99.90;;;;;;5017189;28;20022;-76
2022/11/11 08:43:55;;;;;;;9.68;4.32;;;15.00;99.90;;;;;;5016059;28;20030;-76
2022/11/11 08:46:23;;;;;;;6.70;3.35;;;15.00;99.90;;;;;;5019727;28;20029;-76
2022/11/11 08:48:49;;;;;;;11.55;4.57;;;15.10;99.90;;;;;;5013452;28;20542;-77
2022/11/11 08:51:15;;;;;;;6.50;3.65;;;15.10;99.90;;;;;;5015503;28;20041;-76
2022/11/11 08:53:41;;;;;;;11.30;3.97;;;15.20;99.90;;;;;;5017159;28;20509;-77
2022/11/11 08:56:07;;;;;;;8.90;3.10;;;15.20;99.90;;;;;;5040589;28;20458;-76
2022/11/11 08:58:33;;;;;;;12.25;4.03;;;15.30;99.90;;;;;;5019178;28;20030;-76
2022/11/11 09:01:00;;;;;;;7.22;4.05;;;15.30;99.90;;;;;;5020114;28;20067;-77
2022/11/11 09:03:27;;;;;;;10.98;4.47;;;15.40;99.90;;;;;;5010503;28;20041;-76
2022/11/11 09:05:52;;;;;;;6.70;3.85;;;15.50;99.90;;;;;;5030975;28;20363;-75
2022/11/11 09:08:18;;;;;;;9.98;3.58;;;15.60;99.90;;;;;;5012769;28;20109;-75
2022/11/11 09:10:44;;;;;;;8.30;3.80;;;15.60;99.90;;;;;;5019507;28;20028;-76
2022/11/11 09:13:10;;;;;;;8.32;3.92;;;15.70;99.90;;;;;;5014412;28;20039;-77
2022/11/11 09:15:36;;;;;;;9.80;3.67;;;15.80;99.90;;;;;;5032146;28;20069;-77
2022/11/11 09:18:02;;;;;;;10.65;3.05;;;15.80;99.90;;;;;;5017678;28;20053;-76
2022/11/11 09:20:28;;;;;;;12.00;3.38;;;15.80;99.90;;;;;;5019188;28;20046;-77
2022/11/11 09:22:54;;;;;;;7.30;2.78;;;15.80;99.90;;;;;;5017229;28;20034;-77
2022/11/11 09:25:22;;;;;;;7.57;3.20;;;15.90;99.90;;;;;;5012213;28;20048;-77
2022/11/11 09:27:59;;;;;;;10.00;3.63;;;16.00;99.90;;;;;;5011709;28;20022;-76
2022/11/11 09:30:26;;;;;;;10.32;3.47;;;16.00;99.90;;;;;;5014287;28;20026;-75
2022/11/11 09:32:52;;;;;;;7.43;3.30;;;16.10;99.90;;;;;;5023802;28;20108;-76
2022/11/11 09:35:18;;;;;;;11.43;3.90;;;16.10;99.90;;;;;;5019210;28;20114;-76
2022/11/11 09:37:58;;;;;;;10.77;3.28;;;16.10;99.90;;;;;;5016353;28;20513;-77
2022/11/11 09:40:28;;;;;;;9.60;2.93;;;16.20;99.90;;;;;;5017563;28;20405;-76
2022/11/11 09:43:25;;;;;;;5.00;2.72;;;16.30;99.90;;;;;;5024257;28;20022;-76
2022/11/11 09:46:00;;;;;;;8.98;3.15;;;16.30;99.90;;;;;;5031282;28;20445;-77
2022/11/11 09:48:51;;;;;;;11.05;3.63;;;16.40;99.90;;;;;;5022063;28;20026;-78
2022/11/11 09:51:24;;;;;;;7.70;2.92;;;16.40;99.90;;;;;;5025623;28;20109;-78
2022/11/11 09:53:59;;;;;;;10.77;3.17;;;16.40;99.90;;;;;;5015243;28;20071;-77
2022/11/11 09:56:26;;;;;;;12.82;3.30;;;16.50;99.90;;;;;;5016932;28;20129;-77
2022/11/11 09:59:10;;;;;;;7.60;3.13;;;16.50;99.90;;;;;;5022464;28;20018;-76
2022/11/11 10:01:52;;;;;;;9.05;3.03;;;16.50;99.90;;;;;;5015106;28;20026;-77
2022/11/11 10:04:31;;;;;;;8.55;3.58;;;16.60;99.90;;;;;;5013821;28;20058;-76
2022/11/11 10:07:05;;;;;;;6.78;2.95;;;16.60;99.90;;;;;;5029424;28;20034;-76
2022/11/11 10:09:40;;;;;;;12.45;4.13;;;16.70;99.90;;;;;;5012990;28;20077;-76
2022/11/11 10:12:14;;;;;;;9.20;3.47;;;16.70;99.90;;;;;;5012818;28;20042;-77
2022/11/11 10:14:50;;;;;;;6.03;3.00;;;16.70;99.90;;;;;;5022671;28;20034;-76
2022/11/11 10:17:21;;;;;;;9.60;3.00;;;16.70;99.90;;;;;;5026042;28;20068;-76
2022/11/11 10:19:56;;;;;;;6.85;3.05;;;16.70;99.90;;;;;;5015163;28;20026;-76
2022/11/11 10:22:33;;;;;;;13.10;3.15;;;16.80;99.90;;;;;;5025850;28;20109;-76
2022/11/11 10:25:23;;;;;;;10.40;3.45;;;16.80;99.90;;;;;;5017963;28;20087;-77
2022/11/11 10:27:53;;;;;;;5.05;2.80;;;16.90;99.90;;;;;;5019952;28;20022;-77
2022/11/11 10:30:25;;;;;;;5.97;2.80;;;16.90;99.90;;;;;;5021246;28;20022;-77
2022/11/11 10:33:11;;;;;;;5.40;3.03;;;17.00;99.90;;;;;;5023260;28;20029;-77
2022/11/11 10:35:38;;;;;;;4.18;2.58;;;17.00;99.90;;;;;;5019894;28;20022;-78
2022/11/11 10:38:22;;;;;;;8.07;2.92;;;17.10;99.90;;;;;;5020133;28;20414;-78
2022/11/11 10:40:52;;;;;;;4.25;2.60;;;17.10;99.90;;;;;;5019888;28;20367;-77
2022/11/11 10:43:28;;;;;;;8.63;3.50;;;17.20;99.90;;;;;;5021651;28;20045;-76
2022/11/11 10:46:01;;;;;;;7.45;2.50;;;17.20;99.90;;;;;;5033043;28;20117;-76
2022/11/11 10:48:58;;;;;;;6.35;3.13;;;17.20;99.90;;;;;;5020618;28;20018;-77
2022/11/11 10:51:34;;;;;;;6.80;2.75;;;17.30;99.90;;;;;;5032565;28;20519;-77
2022/11/11 10:54:13;;;;;;;9.60;3.35;;;17.30;99.90;;;;;;5021497;28;20018;-76
2022/11/11 10:56:46;;;;;;;9.10;2.78;;;17.40;99.90;;;;;;5032701;28;20155;-77
2022/11/11 10:59:21;;;;;;;8.55;3.03;;;17.40;99.90;;;;;;5026971;28;20032;-77
2022/11/11 11:02:25;;;;;;;5.32;2.67;;;17.40;99.90;;;;;;5029961;28;20044;-77
2022/11/11 11:05:09;;;;;;;5.72;3.30;;;17.50;99.90;;;;;;5010315;28;20041;-77
2022/11/11 11:07:49;;;;;;;5.97;2.40;;;17.50;99.90;;;;;;5023404;28;20386;-77
2022/11/11 11:10:25;;;;;;;5.80;2.37;;;17.60;99.90;;;;;;5040392;28;20041;-77
2022/11/11 11:13:27;;;;;;;2.97;2.33;;;17.60;99.90;;;;;;5031961;28;20370;-77
2022/11/11 11:15:59;;;;;;;5.13;2.28;;;17.70;99.90;;;;;;5016860;28;20045;-77
2022/11/11 11:18:25;;;;;;;9.77;2.97;;;17.80;99.90;;;;;;5012918;28;20442;-76
2022/11/11 11:21:03;;;;;;;7.63;3.22;;;17.80;99.90;;;;;;5027885;28;20391;-77
2022/11/11 11:23:46;;;;;;;3.38;2.08;;;17.90;99.90;;;;;;5016685;28;20037;-76
2022/11/11 11:26:14;;;;;;;5.47;2.78;;;17.90;99.90;;;;;;5029898;28;20049;-77
2022/11/11 11:29:02;;;;;;;7.32;2.90;;;17.90;99.90;;;;;;5016049;28;20514;-77
2022/11/11 11:31:41;;;;;;;3.22;1.88;;;17.90;99.90;;;;;;5024500;28;20072;-77
2022/11/11 11:34:07;;;;;;;6.50;2.28;;;18.00;99.90;;;;;;5019869;28;20390;-78
2022/11/11 11:36:33;;;;;;;6.50;2.40;;;18.00;99.90;;;;;;5025295;28;20049;-77
2022/11/11 11:39:00;;;;;;;9.75;2.58;;;18.00;99.90;;;;;;5020913;28;20117;-76
2022/11/11 11:41:44;;;;;;;6.07;2.60;;;18.10;99.90;;;;;;5033288;28;20022;-75
2022/11/11 11:44:30;;;;;;;5.72;2.28;;;18.10;99.90;;;;;;5016323;28;20064;-76
2022/11/11 11:47:18;;;;;;;4.88;2.80;;;18.10;99.90;;;;;;5018864;28;20088;-77
2022/11/11 11:50:10;;;;;;;5.72;1.95;;;18.20;99.90;;;;;;5033441;28;20060;-77
2022/11/11 11:52:51;;;;;;;7.05;2.83;;;18.10;99.90;;;;;;5015962;28;20038;-77
2022/11/11 11:55:21;;;;;;;;;;;18.10;99.90;;;;;;5032458;28;20483;-76
2022/11/11 11:58:02;;;;;;;6.35;2.38;;;18.20;99.90;;;;;;5016965;28;19909;-76
2022/11/11 12:00:39;;;;;;;9.15;2.78;;;18.30;99.90;;;;;;5027401;28;20025;-76
2022/11/11 12:03:42;;;;;;;5.05;2.78;;;18.40;99.90;;;;;;5019330;28;20033;-76
2022/11/11 12:06:11;;;;;;;11.82;3.50;;;18.60;99.90;;;;;;5019828;28;20057;-77
2022/11/11 12:09:02;;;;;;;4.35;2.63;;;18.60;99.90;;;;;;5028097;28;20075;-77
2022/11/11 12:11:37;;;;;;;4.70;2.45;;;18.60;99.90;;;;;;5024779;28;20026;-76
2022/11/11 12:14:15;;;;;;;8.43;3.45;;;18.50;99.90;;;;;;5023139;28;20451;-77
2022/11/11 12:17:06;;;;;;;8.35;2.85;;;18.40;99.90;;;;;;5025531;28;20042;-78
2022/11/11 12:19:32;;;;;;;8.02;2.97;;;18.40;99.90;;;;;;5020530;28;20030;-77
2022/11/11 12:22:04;;;;;;;5.00;2.35;;;18.50;99.90;;;;;;5018696;28;20034;-77
2022/11/11 12:24:51;;;;;;;10.13;2.92;;;18.50;99.90;;;;;;5031607;28;20056;-76
2022/11/11 12:27:31;;;;;;;7.40;2.80;;;18.50;99.90;;;;;;5047151;28;20121;-77
2022/11/11 12:30:03;;;;;;;7.07;2.97;;;18.50;99.90;;;;;;5024723;28;20025;-77
2022/11/11 12:32:41;;;;;;;5.57;2.70;;;18.50;99.90;;;;;;5023920;28;20112;-77
2022/11/11 12:35:40;;;;;;;7.90;3.20;;;18.60;99.90;;;;;;5024207;28;20029;-77
2022/11/11 12:38:32;;;;;;;6.53;2.47;;;18.60;99.90;;;;;;5021362;28;20048;-77
2022/11/11 12:41:08;;;;;;;5.60;2.83;;;18.60;99.90;;;;;;5025426;28;20038;-77
2022/11/11 12:43:58;;;;;;;11.80;3.22;;;18.60;99.90;;;;;;5015236;28;20037;-77
2022/11/11 12:46:55;;;;;;;10.80;3.20;;;18.70;99.90;;;;;;5019390;28;20022;-77
2022/11/11 12:49:44;;;;;;;8.07;3.15;;;18.70;99.90;;;;;;5018723;28;20121;-77
2022/11/11 12:52:35;;;;;;;15.63;2.95;;;18.80;99.90;;;;;;5014996;28;20025;-77
2022/11/11 12:55:26;;;;;;;5.43;2.67;;;18.80;99.90;;;;;;5025304;28;20022;-77
2022/11/11 12:58:04;;;;;;;9.73;3.70;;;18.80;99.90;;;;;;5024176;28;20117;-78
2022/11/11 13:00:32;;;;;;;14.82;3.25;;;18.90;99.90;;;;;;5018213;28;20458;-77
2022/11/11 13:03:34;;;;;;;7.97;2.60;;;18.90;99.90;;;;;;5017420;28;20117;-78
2022/11/11 13:06:21;;;;;;;6.22;2.60;;;18.90;99.90;;;;;;5022727;28;20077;-78
2022/11/11 13:09:03;;;;;;;6.70;3.10;;;18.90;99.90;;;;;;5019217;28;20028;-78
2022/11/11 13:11:37;;;;;;;8.48;2.97;;;19.00;99.90;;;;;;5019549;28;20108;-77
2022/11/11 13:14:22;;;;;;;7.35;3.08;;;19.00;99.90;;;;;;5030062;28;20029;-77
2022/11/11 13:16:55;;;;;;;8.55;2.67;;;19.10;99.90;;;;;;5017360;28;20041;-77
2022/11/11 13:19:40;;;;;;;6.97;2.83;;;19.00;99.90;;;;;;5013687;28;20494;-79
2022/11/11 13:22:23;;;;;;;11.93;3.63;;;19.10;99.90;;;;;;5016155;28;20030;-76
2022/11/11 13:24:51;;;;;;;7.40;2.33;;;19.00;99.90;;;;;;5018874;28;20026;-76
2022/11/11 13:27:41;;;;;;;8.15;2.83;;;19.00;99.90;;;;;;5044280;28;20457;-77
2022/11/11 13:30:10;;;;;;;7.10;3.70;;;19.00;99.90;;;;;;5019964;28;20100;-76
2022/11/11 13:32:41;;;;;;;5.32;2.75;;;19.00;99.90;;;;;;5011489;28;20041;-76
2022/11/11 13:35:56;;;;;;;9.18;3.05;;;19.00;99.90;;;;;;5019166;28;20097;-78
2022/11/11 13:38:46;;;;;;;10.55;3.15;;;19.10;99.90;;;;;;5033719;28;20037;-76
2022/11/11 13:41:20;;;;;;;16.70;5.20;;;19.10;99.90;;;;;;5034728;28;20863;-77
2022/11/11 13:43:49;;;;;;;16.58;3.63;;;19.10;99.90;;;;;;5020577;28;20099;-77
2022/11/11 13:46:42;;;;;;;9.60;3.63;;;19.10;99.90;;;;;;5036320;28;20159;-77
2022/11/11 13:49:39;;;;;;;7.45;3.97;;;19.10;99.90;;;;;;5016595;28;20041;-77
2022/11/11 13:52:26;;;;;;;11.70;4.03;;;19.10;99.90;;;;;;5020568;28;20095;-77
2022/11/11 13:55:07;;;;;;;15.02;3.72;;;19.20;99.90;;;;;;5021713;28;20028;-76
2022/11/11 13:57:34;;;;;;;;;;;19.10;99.90;;;;;;5030034;28;20049;-76
2022/11/11 14:00:24;;;;;;;12.70;3.83;;;19.10;99.90;;;;;;5013237;28;19905;-77
2022/11/11 14:03:16;;;;;;;9.80;3.65;;;19.10;99.90;;;;;;5011397;28;20025;-77
2022/11/11 14:05:43;;;;;;;10.32;3.95;;;19.10;99.90;;;;;;5013439;28;20116;-77
2022/11/11 14:08:09;;;;;;;7.55;3.50;;;19.10;99.90;;;;;;5013954;28;20033;-76
2022/11/11 14:10:35;;;;;;;13.50;3.55;;;19.00;99.90;;;;;;5023561;28;20030;-77
2022/11/11 14:13:22;;;;;;;11.18;3.38;;;19.00;99.90;;;;;;5019783;28;20061;-78
2022/11/11 14:15:51;;;;;;;10.30;4.55;;;19.00;99.90;;;;;;5017145;28;20506;-77